createdAt,value
2023-04-10T00:00:29.179Z,101933.69
2023-04-10T00:02:56.389Z,101906.50
2023-04-10T00:05:23.196Z,101915.56
2023-04-10T00:07:49.862Z,101918.03
2023-04-10T00:10:16.871Z,101946.75
2023-04-10T00:12:43.682Z,101925.88
2023-04-10T00:15:10.684Z,101830.88
2023-04-10T00:17:37.450Z,101909.16
2023-04-10T00:20:05.052Z,101895.84
2023-04-10T00:22:31.671Z,101886.03
2023-04-10T00:24:58.277Z,101877.03
2023-04-10T00:27:25.017Z,101886.72
2023-04-10T00:29:51.585Z,101829.00
2023-04-10T00:32:18.454Z,101873.28
2023-04-10T00:34:45.340Z,101896.75
2023-04-10T00:37:11.985Z,101884.47
2023-04-10T00:39:38.598Z,101877.25
2023-04-10T00:42:09.281Z,101870.03
2023-04-10T00:44:37.675Z,101894.53
2023-04-10T00:47:05.974Z,101857.66
2023-04-10T00:49:33.291Z,101870.28
2023-04-10T00:52:00.302Z,101884.47
2023-04-10T00:54:28.432Z,101865.41
2023-04-10T00:56:57.258Z,101855.59
2023-04-10T00:59:24.028Z,101852.59
2023-04-10T01:01:52.040Z,101772.47
2023-04-10T01:04:18.981Z,101857.50
2023-04-10T01:07:21.517Z,101856.78
2023-04-10T01:09:56.733Z,101811.56
2023-04-10T01:12:43.768Z,101770.28
2023-04-10T01:15:15.663Z,101855.97
2023-04-10T01:18:00.800Z,101866.66
2023-04-10T01:20:31.560Z,101836.03
2023-04-10T01:23:23.475Z,101860.22
2023-04-10T01:26:03.447Z,101853.81
2023-04-10T01:28:57.040Z,101857.09
2023-04-10T01:31:31.204Z,101744.31
2023-04-10T01:34:02.482Z,101847.81
2023-04-10T01:36:36.988Z,101834.09
2023-04-10T01:39:05.323Z,101826.78
2023-04-10T01:41:33.982Z,101779.09
2023-04-10T01:44:03.884Z,101823.41
2023-04-10T01:46:31.756Z,101831.47
2023-04-10T01:49:01.257Z,101826.94
2023-04-10T01:51:29.540Z,101810.75
2023-04-10T01:53:56.928Z,101815.84
2023-04-10T01:56:28.596Z,101844.75
2023-04-10T01:58:56.476Z,101825.53
2023-04-10T02:01:29.917Z,101822.03
2023-04-10T02:04:26.408Z,101811.41
2023-04-10T02:07:22.074Z,101838.38
2023-04-10T02:09:58.052Z,101832.88
2023-04-10T02:12:42.111Z,101831.47
2023-04-10T02:15:10.001Z,101773.50
2023-04-10T02:17:37.330Z,101831.84
2023-04-10T02:20:06.620Z,101805.78
2023-04-10T02:22:34.151Z,101768.75
2023-04-10T02:25:00.852Z,101823.31
2023-04-10T02:27:29.448Z,101786.44
2023-04-10T02:29:56.745Z,101793.66
2023-04-10T02:32:24.084Z,101706.31
2023-04-10T02:34:50.743Z,101811.31
2023-04-10T02:37:17.451Z,101804.88
2023-04-10T02:39:44.068Z,101769.06
2023-04-10T02:42:11.913Z,101812.75
2023-04-10T02:44:42.009Z,101797.50
2023-04-10T02:47:08.954Z,101793.03
2023-04-10T02:49:38.334Z,101742.56
2023-04-10T02:52:11.663Z,101779.16
2023-04-10T02:54:38.233Z,101793.69
2023-04-10T02:57:04.836Z,101764.09
2023-04-10T02:59:31.664Z,101734.53
2023-04-10T03:01:58.502Z,101773.06
2023-04-10T03:04:25.531Z,101667.47
2023-04-10T03:06:52.318Z,101792.38
2023-04-10T03:09:18.890Z,101761.56
2023-04-10T03:11:45.836Z,101782.16
2023-04-10T03:14:13.114Z,101754.84
2023-04-10T03:16:39.686Z,101767.22
2023-04-10T03:19:06.466Z,101782.47
2023-04-10T03:21:33.094Z,101664.13
2023-04-10T03:23:59.856Z,101776.59
2023-04-10T03:26:26.689Z,101759.31
2023-04-10T03:28:53.728Z,101810.50
2023-04-10T03:31:20.512Z,101801.34
2023-04-10T03:33:47.140Z,101765.72
2023-04-10T03:36:13.753Z,101764.69
2023-04-10T03:38:40.549Z,101782.63
2023-04-10T03:41:08.710Z,101750.78
2023-04-10T03:43:35.475Z,101770.56
2023-04-10T03:46:03.683Z,101790.81
2023-04-10T03:48:30.701Z,101770.72
2023-04-10T03:50:57.564Z,101768.19
2023-04-10T03:53:24.761Z,101750.84
2023-04-10T03:55:53.263Z,101769.88
2023-04-10T03:58:21.714Z,101653.75
2023-04-10T04:00:48.607Z,101753.38
2023-04-10T04:03:33.222Z,101728.94
2023-04-10T04:06:06.198Z,101739.78
2023-04-10T04:08:32.777Z,101683.28
2023-04-10T04:11:17.964Z,101753.75
2023-04-10T04:14:23.925Z,101708.53
2023-04-10T04:17:10.558Z,101736.22
2023-04-10T04:19:55.328Z,101740.69
2023-04-10T04:22:44.812Z,101719.34
2023-04-10T04:25:30.017Z,101721.28
2023-04-10T04:28:16.053Z,101729.53
2023-04-10T04:31:09.135Z,101693.19
2023-04-10T04:33:48.409Z,101734.81
2023-04-10T04:36:41.005Z,101730.31
2023-04-10T04:39:39.902Z,101712.72
2023-04-10T04:42:24.409Z,101733.28
2023-04-10T04:45:03.295Z,101723.72
2023-04-10T04:48:05.035Z,101695.25
2023-04-10T04:50:50.285Z,101744.78
2023-04-10T04:53:35.286Z,101707.88
2023-04-10T04:56:11.287Z,101743.97
2023-04-10T04:58:47.659Z,101731.59
2023-04-10T05:01:32.064Z,101738.16
2023-04-10T05:04:18.612Z,101727.06
2023-04-10T05:07:14.454Z,101679.66
2023-04-10T05:09:46.916Z,101615.69
2023-04-10T05:12:32.319Z,101716.09
2023-04-10T05:15:04.041Z,101723.31
2023-04-10T05:17:51.164Z,101704.88
2023-04-10T05:20:53.341Z,101700.50
2023-04-10T05:23:55.456Z,101697.50
2023-04-10T05:26:29.601Z,101719.13
2023-04-10T05:29:25.421Z,101584.03
2023-04-10T05:32:12.412Z,101690.78
2023-04-10T05:34:44.118Z,101696.41
2023-04-10T05:37:13.675Z,101720.25
2023-04-10T05:39:50.564Z,101672.84
2023-04-10T05:42:26.012Z,101693.78
2023-04-10T05:45:03.401Z,101614.72
2023-04-10T05:47:53.846Z,101707.81
2023-04-10T05:50:36.964Z,101681.25
2023-04-10T05:53:35.985Z,101706.03
2023-04-10T05:56:25.692Z,101687.22
2023-04-10T05:59:08.168Z,101670.66
2023-04-10T06:01:56.773Z,101688.44
2023-04-10T06:04:24.162Z,101698.66
2023-04-10T06:06:54.294Z,101691.75
2023-04-10T06:09:20.891Z,101669.72
2023-04-10T06:11:47.410Z,101689.19
2023-04-10T06:14:19.517Z,101689.63
2023-04-10T06:16:46.715Z,101583.69
2023-04-10T06:19:15.602Z,101708.09
2023-04-10T06:21:42.191Z,101684.16
2023-04-10T06:24:09.633Z,101704.97
2023-04-10T06:26:37.493Z,101690.13
2023-04-10T06:29:04.461Z,101651.91
2023-04-10T06:31:34.073Z,101613.09
2023-04-10T06:34:00.885Z,101653.72
2023-04-10T06:36:28.706Z,101688.22
2023-04-10T06:39:02.656Z,101586.00
2023-04-10T06:41:29.413Z,101672.06
2023-04-10T06:44:05.503Z,101654.50
2023-04-10T06:46:32.075Z,101651.16
2023-04-10T06:48:58.628Z,101651.59
2023-04-10T06:51:25.160Z,101636.88
2023-04-10T06:53:51.692Z,101638.59
2023-04-10T06:56:18.251Z,101663.53
2023-04-10T06:58:44.837Z,101637.56
2023-04-10T07:01:11.438Z,101658.94
2023-04-10T07:03:38.291Z,101617.31
2023-04-10T07:06:05.115Z,101607.25
2023-04-10T07:08:31.670Z,101515.28
2023-04-10T07:10:58.883Z,101605.78
2023-04-10T07:13:25.859Z,101589.78
2023-04-10T07:15:52.562Z,101595.13
2023-04-10T07:18:19.197Z,101596.91
2023-04-10T07:20:45.745Z,101602.09
2023-04-10T07:23:12.291Z,101575.16
2023-04-10T07:25:38.802Z,101575.13
2023-04-10T07:28:05.315Z,101601.97
2023-04-10T07:30:31.875Z,101527.41
2023-04-10T07:32:58.563Z,101585.81
2023-04-10T07:35:25.468Z,101590.34
2023-04-10T07:37:52.775Z,101577.06
2023-04-10T07:40:19.317Z,101575.38
2023-04-10T07:42:46.567Z,101557.66
2023-04-10T07:45:13.202Z,101557.97
2023-04-10T07:47:39.879Z,101536.69
2023-04-10T07:50:07.688Z,101556.72
2023-04-10T07:52:34.258Z,101537.28
2023-04-10T07:55:04.399Z,101543.84
2023-04-10T07:57:32.175Z,101507.13
2023-04-10T07:59:58.815Z,101537.69
2023-04-10T08:02:25.992Z,101557.47
2023-04-10T08:04:52.786Z,101521.84
2023-04-10T08:07:21.604Z,101521.19
2023-04-10T08:09:48.391Z,101513.28
2023-04-10T08:12:14.967Z,101538.88
2023-04-10T08:14:41.528Z,101518.75
2023-04-10T08:17:14.424Z,101499.28
2023-04-10T08:19:42.086Z,101528.94
2023-04-10T08:22:09.043Z,101457.53
2023-04-10T08:24:35.644Z,101489.72
2023-04-10T08:27:02.232Z,101508.56
2023-04-10T08:29:28.744Z,101526.50
2023-04-10T08:31:56.396Z,101519.38
2023-04-10T08:34:24.316Z,101491.63
2023-04-10T08:36:50.902Z,101507.69
2023-04-10T08:39:18.253Z,101530.91
2023-04-10T08:41:44.881Z,101503.13
2023-04-10T08:44:12.050Z,101498.66
2023-04-10T08:46:43.647Z,101524.63
2023-04-10T08:49:15.454Z,101505.00
2023-04-10T08:51:51.865Z,101498.81
2023-04-10T08:54:27.565Z,101475.53
2023-04-10T08:56:55.956Z,101487.19
2023-04-10T08:59:22.927Z,101473.78
2023-04-10T09:01:49.683Z,101470.19
2023-04-10T09:04:19.353Z,101470.16
2023-04-10T09:06:46.097Z,101472.84
2023-04-10T09:09:12.752Z,101471.88
2023-04-10T09:12:01.391Z,101489.75
2023-04-10T09:14:29.709Z,101486.19
2023-04-10T09:17:17.566Z,101472.84
2023-04-10T09:19:45.859Z,101429.97
2023-04-10T09:22:13.014Z,101387.09
2023-04-10T09:24:42.142Z,101454.09
2023-04-10T09:27:09.977Z,101395.06
2023-04-10T09:29:50.241Z,101404.78
2023-04-10T09:32:38.661Z,101439.59
2023-04-10T09:35:05.938Z,101436.00
2023-04-10T09:37:33.629Z,101439.66
2023-04-10T09:40:00.771Z,101378.13
2023-04-10T09:42:36.971Z,101416.47
2023-04-10T09:45:04.770Z,101442.44
2023-04-10T09:47:31.757Z,101439.81
2023-04-10T09:50:02.772Z,101431.75
2023-04-10T09:52:31.755Z,101402.31
2023-04-10T09:55:04.530Z,101401.38
2023-04-10T09:57:34.031Z,101330.84
2023-04-10T10:00:05.082Z,101298.69
2023-04-10T10:02:38.994Z,101392.44
2023-04-10T10:05:07.462Z,101282.63
2023-04-10T10:07:34.710Z,101362.09
2023-04-10T10:10:02.971Z,101365.66
2023-04-10T10:12:44.602Z,101366.56
2023-04-10T10:15:31.366Z,101354.94
2023-04-10T10:18:10.377Z,101309.38
2023-04-10T10:20:39.948Z,101371.84
2023-04-10T10:23:08.237Z,101289.72
2023-04-10T10:25:35.677Z,101341.38
2023-04-10T10:28:04.154Z,101375.19
2023-04-10T10:30:35.037Z,101244.00
2023-04-10T10:33:06.547Z,101296.44
2023-04-10T10:35:37.538Z,101333.75
2023-04-10T10:38:05.394Z,101343.53
2023-04-10T10:40:54.865Z,101323.66
2023-04-10T10:43:36.130Z,101327.94
2023-04-10T10:46:07.208Z,101317.16
2023-04-10T10:48:33.799Z,101245.63
2023-04-10T10:51:02.080Z,101314.22
2023-04-10T10:53:36.134Z,101251.38
2023-04-10T10:56:24.089Z,101301.50
2023-04-10T10:58:56.137Z,101290.34
2023-04-10T11:01:23.417Z,101235.78
2023-04-10T11:03:50.807Z,101254.28
2023-04-10T11:06:19.923Z,101283.94
2023-04-10T11:08:53.153Z,101269.03
2023-04-10T11:11:21.708Z,101286.75
2023-04-10T11:13:57.017Z,101291.94
2023-04-10T11:16:41.957Z,101262.41
2023-04-10T11:19:15.580Z,101282.69
2023-04-10T11:22:02.597Z,101280.81
2023-04-10T11:24:30.267Z,101192.97
2023-04-10T11:26:57.467Z,101246.53
2023-04-10T11:29:27.118Z,101260.09
2023-04-10T11:31:58.391Z,101243.44
2023-04-10T11:34:26.980Z,101243.44
2023-04-10T11:36:53.928Z,101156.06
2023-04-10T11:39:21.487Z,101237.75
2023-04-10T11:41:50.395Z,101228.97
2023-04-10T11:44:26.417Z,101155.41
2023-04-10T11:46:53.717Z,101209.28
2023-04-10T11:49:25.108Z,101157.47
2023-04-10T11:51:52.378Z,101210.38
2023-04-10T11:54:21.898Z,101219.97
2023-04-10T11:57:02.932Z,101214.72
2023-04-10T11:59:31.346Z,101135.34
2023-04-10T12:02:09.659Z,101204.00
2023-04-10T12:04:36.866Z,101194.19
2023-04-10T12:07:03.809Z,101184.34
2023-04-10T12:09:31.749Z,101211.31
2023-04-10T12:12:07.076Z,101143.25
2023-04-10T12:14:41.695Z,101205.50
2023-04-10T12:17:11.306Z,101106.88
2023-04-10T12:19:39.144Z,101204.25
2023-04-10T12:22:06.601Z,101169.91
2023-04-10T12:24:48.016Z,101170.84
2023-04-10T12:27:26.459Z,101170.25
2023-04-10T12:29:55.954Z,101115.34
2023-04-10T12:32:23.471Z,101087.66
2023-04-10T12:34:51.720Z,101168.47
2023-04-10T12:37:19.031Z,101092.88
2023-04-10T12:39:45.724Z,101142.66
2023-04-10T12:42:20.526Z,101152.41
2023-04-10T12:44:58.734Z,101134.38
2023-04-10T12:47:27.943Z,101122.97
2023-04-10T12:50:12.151Z,101130.22
2023-04-10T12:52:41.276Z,101136.38
2023-04-10T12:55:15.400Z,101076.63
2023-04-10T12:57:43.947Z,101127.31
2023-04-10T13:00:13.165Z,101066.63
2023-04-10T13:02:41.297Z,101064.13
2023-04-10T13:05:09.107Z,101053.03
2023-04-10T13:07:37.659Z,101098.41
2023-04-10T13:10:06.144Z,101095.19
2023-04-10T13:12:34.977Z,101075.00
2023-04-10T13:15:02.741Z,101040.31
2023-04-10T13:17:30.479Z,101092.28
2023-04-10T13:19:57.158Z,101070.16
2023-04-10T13:22:23.853Z,101065.81
2023-04-10T13:24:50.522Z,101073.72
2023-04-10T13:27:17.081Z,101056.97
2023-04-10T13:29:43.836Z,101050.81
2023-04-10T13:32:10.719Z,101069.66
2023-04-10T13:34:37.545Z,101038.56
2023-04-10T13:37:04.366Z,101016.53
2023-04-10T13:39:31.999Z,101025.66
2023-04-10T13:41:59.424Z,100997.16
2023-04-10T13:44:27.067Z,100997.13
2023-04-10T13:46:53.816Z,101023.78
2023-04-10T13:49:21.937Z,101014.91
2023-04-10T13:51:48.771Z,100993.56
2023-04-10T13:54:17.298Z,101008.66
2023-04-10T13:56:44.905Z,100902.66
2023-04-10T13:59:11.831Z,100966.47
2023-04-10T14:01:38.440Z,100958.34
2023-04-10T14:04:05.281Z,100968.09
2023-04-10T14:06:33.865Z,100971.75
2023-04-10T14:09:00.560Z,100953.91
2023-04-10T14:11:27.249Z,100947.47
2023-04-10T14:13:53.885Z,100938.44
2023-04-10T14:16:20.598Z,100949.69
2023-04-10T14:18:47.303Z,100952.94
2023-04-10T14:21:16.599Z,100927.19
2023-04-10T14:23:47.380Z,100823.72
2023-04-10T14:27:23.040Z,100936.88
2023-04-10T14:30:46.040Z,100930.03
2023-04-10T14:33:12.915Z,100902.59
2023-04-10T14:35:41.557Z,100923.03
2023-04-10T14:41:36.059Z,100908.50
2023-04-10T14:44:37.045Z,100867.09
2023-04-10T14:47:06.347Z,100838.13
2023-04-10T14:49:32.960Z,100916.44
2023-04-10T14:52:00.571Z,100887.44
2023-04-10T14:54:27.225Z,100895.91
2023-04-10T14:56:53.843Z,100895.34
2023-04-10T14:59:20.706Z,100881.28
2023-04-10T15:01:47.549Z,100882.34
2023-04-10T15:04:14.403Z,100878.06
2023-04-10T15:06:41.131Z,100880.06
2023-04-10T15:09:07.861Z,100899.84
2023-04-10T15:11:34.534Z,100820.16
2023-04-10T15:14:02.233Z,100799.06
2023-04-10T15:16:31.953Z,100913.16
2023-04-10T15:18:58.604Z,100916.00
2023-04-10T15:21:27.240Z,100925.03
2023-04-10T15:23:54.097Z,100935.78
2023-04-10T15:26:21.335Z,100912.63
2023-04-10T15:28:48.197Z,100904.63
2023-04-10T15:31:14.963Z,100909.97
2023-04-10T15:33:41.766Z,100906.41
2023-04-10T15:36:08.743Z,100861.91
2023-04-10T15:38:35.723Z,100902.81
2023-04-10T15:41:08.936Z,100803.09
2023-04-10T15:43:35.905Z,100866.28
2023-04-10T15:46:02.518Z,100866.31
2023-04-10T15:48:29.237Z,100844.94
2023-04-10T15:50:55.943Z,100823.56
2023-04-10T15:53:22.563Z,100832.47
2023-04-10T15:55:49.099Z,100837.84
2023-04-10T15:58:15.733Z,100813.84
2023-04-10T16:00:42.277Z,100810.25
2023-04-10T16:03:09.064Z,100814.69
2023-04-10T16:05:35.784Z,100800.47
2023-04-10T16:08:03.292Z,100791.56
2023-04-10T16:10:30.605Z,100779.13
2023-04-10T16:13:02.808Z,100764.00
2023-04-10T16:15:31.376Z,100781.78
2023-04-10T16:17:58.365Z,100773.78
2023-04-10T16:20:25.638Z,100694.63
2023-04-10T16:22:53.502Z,100787.13
2023-04-10T16:25:21.715Z,100758.63
2023-04-10T16:27:50.601Z,100755.97
2023-04-10T16:30:18.096Z,100759.53
2023-04-10T16:32:45.115Z,100762.19
2023-04-10T16:35:11.710Z,100756.84
2023-04-10T16:37:38.438Z,100717.69
2023-04-10T16:40:06.785Z,100719.47
2023-04-10T16:42:34.645Z,100721.22
2023-04-10T16:45:02.169Z,100748.75
2023-04-10T16:47:29.006Z,100666.09
2023-04-10T16:49:55.975Z,100734.56
2023-04-10T16:52:22.585Z,100731.03
2023-04-10T16:54:49.175Z,100730.13
2023-04-10T16:57:15.727Z,100657.22
2023-04-10T16:59:42.522Z,100732.78
2023-04-10T17:02:09.080Z,100726.56
2023-04-10T17:04:35.782Z,100755.00
2023-04-10T17:07:02.391Z,100739.00
2023-04-10T17:09:28.978Z,100738.16
2023-04-10T17:11:55.890Z,100749.75
2023-04-10T17:14:22.410Z,100776.44
2023-04-10T17:16:49.012Z,100791.56
2023-04-10T17:19:17.382Z,100792.44
2023-04-10T17:21:45.585Z,100794.13
2023-04-10T17:24:46.102Z,100815.25
2023-04-10T17:27:13.439Z,100840.97
2023-04-10T17:29:40.837Z,100775.78
2023-04-10T17:32:08.832Z,100834.50
2023-04-10T17:34:35.666Z,100834.44
2023-04-10T17:37:02.450Z,100829.09
2023-04-10T17:39:29.081Z,100851.28
2023-04-10T17:41:56.744Z,100857.50
2023-04-10T17:44:23.514Z,100844.91
2023-04-10T17:46:50.356Z,100857.41
2023-04-10T17:49:17.096Z,100846.69
2023-04-10T17:51:43.745Z,100832.34
2023-04-10T17:54:10.604Z,100834.94
2023-04-10T17:56:37.305Z,100795.72
2023-04-10T17:59:04.110Z,100841.22
2023-04-10T18:01:31.113Z,100844.81
2023-04-10T18:03:59.133Z,100806.50
2023-04-10T18:06:26.372Z,100821.66
2023-04-10T18:08:53.280Z,100836.81
2023-04-10T18:11:20.208Z,100795.78
2023-04-10T18:13:47.221Z,100792.16
2023-04-10T18:16:14.035Z,100776.13
2023-04-10T18:18:42.361Z,100743.28
2023-04-10T18:21:19.184Z,100749.72
2023-04-10T18:23:46.035Z,100759.50
2023-04-10T18:26:13.206Z,100740.69
2023-04-10T18:28:41.926Z,100702.41
2023-04-10T18:31:08.502Z,100751.41
2023-04-10T18:33:35.184Z,100771.97
2023-04-10T18:36:03.510Z,100757.78
2023-04-10T18:38:30.354Z,100739.16
2023-04-10T18:40:57.792Z,100723.16
2023-04-10T18:43:25.602Z,100659.94
2023-04-10T18:45:52.262Z,100723.94
2023-04-10T18:48:20.247Z,100744.44
2023-04-10T18:50:46.974Z,100744.44
2023-04-10T18:53:13.530Z,100754.28
2023-04-10T18:55:40.125Z,100733.84
2023-04-10T18:58:06.738Z,100728.50
2023-04-10T19:00:34.118Z,100769.38
2023-04-10T19:03:00.926Z,100732.91
2023-04-10T19:05:32.335Z,100749.75
2023-04-10T19:08:04.322Z,100750.56
2023-04-10T19:10:32.480Z,100675.81
2023-04-10T19:13:00.041Z,100732.97
2023-04-10T19:15:26.658Z,100724.03
2023-04-10T19:17:54.403Z,100722.09
2023-04-10T19:20:50.840Z,100642.88
2023-04-10T19:23:08.180Z,100712.38
2023-04-10T19:25:34.770Z,100669.78
2023-04-10T19:28:01.423Z,100672.34
2023-04-10T19:30:28.724Z,100673.25
2023-04-10T19:32:55.792Z,100610.00
2023-04-10T19:35:22.669Z,100686.50
2023-04-10T19:37:49.908Z,100696.19
2023-04-10T19:40:19.211Z,100730.00
2023-04-10T19:42:45.933Z,100732.66
2023-04-10T19:45:13.026Z,100729.13
2023-04-10T19:47:39.704Z,100725.53
2023-04-10T19:50:06.972Z,100718.34
2023-04-10T19:52:33.706Z,100652.41
2023-04-10T19:55:00.549Z,100672.94
2023-04-10T19:57:27.275Z,100688.13
2023-04-10T19:59:54.042Z,100608.03
2023-04-10T20:02:22.649Z,100663.28
2023-04-10T20:04:49.648Z,100682.75
2023-04-10T20:07:16.372Z,100701.47
2023-04-10T20:09:43.027Z,100694.28
2023-04-10T20:12:09.722Z,100693.44
2023-04-10T20:14:36.392Z,100700.56
2023-04-10T20:17:03.078Z,100673.88
2023-04-10T20:19:29.785Z,100609.72
2023-04-10T20:21:56.610Z,100703.22
2023-04-10T20:24:23.193Z,100660.50
2023-04-10T20:26:49.774Z,100688.13
2023-04-10T20:29:16.313Z,100689.03
2023-04-10T20:31:43.057Z,100670.34
2023-04-10T20:34:09.738Z,100660.53
2023-04-10T20:36:36.469Z,100649.78
2023-04-10T20:39:03.154Z,100667.63
2023-04-10T20:41:29.718Z,100652.41
2023-04-10T20:43:57.406Z,100678.09
2023-04-10T20:46:26.966Z,100695.88
2023-04-10T20:48:59.099Z,100688.72
2023-04-10T20:51:27.214Z,100650.47
2023-04-10T20:53:54.995Z,100675.41
2023-04-10T20:56:24.906Z,100664.88
2023-04-10T20:58:56.722Z,100568.78
2023-04-10T21:01:23.575Z,100664.81
2023-04-10T21:03:50.525Z,100671.97
2023-04-10T21:06:18.115Z,100660.44
2023-04-10T21:08:44.736Z,100592.84
2023-04-10T21:11:11.389Z,100624.03
2023-04-10T21:13:39.109Z,100642.75
2023-04-10T21:16:06.462Z,100673.88
2023-04-10T21:18:33.130Z,100679.25
2023-04-10T21:20:59.796Z,100627.66
2023-04-10T21:23:26.440Z,100672.25
2023-04-10T21:25:53.081Z,100686.41
2023-04-10T21:28:19.971Z,100684.59
2023-04-10T21:30:46.841Z,100691.72
2023-04-10T21:33:14.150Z,100627.66
2023-04-10T21:35:43.645Z,100696.19
2023-04-10T21:38:12.211Z,100665.09
2023-04-10T21:40:39.992Z,100661.41
2023-04-10T21:43:07.605Z,100658.72
2023-04-10T21:45:36.176Z,100663.88
2023-04-10T21:48:03.077Z,100671.66
2023-04-10T21:50:29.729Z,100636.84
2023-04-10T21:52:56.600Z,100653.75
2023-04-10T21:55:23.152Z,100639.41
2023-04-10T21:57:49.827Z,100669.56
2023-04-10T22:00:17.060Z,100665.91
2023-04-10T22:02:44.323Z,100674.84
2023-04-10T22:05:13.139Z,100657.97
2023-04-10T22:07:40.254Z,100671.34
2023-04-10T22:10:07.669Z,100507.44
2023-04-10T22:12:34.185Z,100641.09
2023-04-10T22:15:00.775Z,100625.03
2023-04-10T22:17:27.437Z,100652.56
2023-04-10T22:19:54.217Z,100570.59
2023-04-10T22:22:21.234Z,100637.56
2023-04-10T22:24:47.901Z,100644.63
2023-04-10T22:27:14.445Z,100642.09
2023-04-10T22:29:43.497Z,100644.13
2023-04-10T22:32:14.159Z,100646.00
2023-04-10T22:34:41.007Z,100629.28
2023-04-10T22:37:07.654Z,100645.38
2023-04-10T22:39:34.313Z,100608.91
2023-04-10T22:42:00.880Z,100642.84
2023-04-10T22:44:27.491Z,100533.34
2023-04-10T22:46:54.081Z,100640.25
2023-04-10T22:49:20.704Z,100602.91
2023-04-10T22:51:47.359Z,100634.97
2023-04-10T22:54:15.847Z,100613.66
2023-04-10T22:56:44.021Z,100624.41
2023-04-10T22:59:10.837Z,100624.38
2023-04-10T23:01:37.464Z,100588.78
2023-04-10T23:04:04.138Z,100551.44
2023-04-10T23:06:32.433Z,100603.88
2023-04-10T23:08:59.105Z,100606.50
2023-04-10T23:11:25.813Z,100614.63
2023-04-10T23:13:52.410Z,100620.78
2023-04-10T23:16:18.952Z,100627.88
2023-04-10T23:18:45.598Z,100606.47
2023-04-10T23:21:12.122Z,100595.75
2023-04-10T23:23:38.663Z,100606.50
2023-04-10T23:26:05.671Z,100620.69
2023-04-10T23:28:32.221Z,100627.84
2023-04-10T23:30:58.865Z,100545.03
2023-04-10T23:33:25.625Z,100633.09
2023-04-10T23:35:52.172Z,100650.03
2023-04-10T23:38:22.303Z,100649.13
2023-04-10T23:40:48.940Z,100626.88
2023-04-10T23:43:15.583Z,100645.63
2023-04-10T23:45:42.238Z,100632.28
2023-04-10T23:48:10.015Z,100645.59
2023-04-10T23:50:36.618Z,100623.28
2023-04-10T23:53:03.333Z,100622.38
2023-04-10T23:55:29.884Z,100648.19
2023-04-10T23:57:56.376Z,100617.00
